createdAt,value
2022-12-11T00:02:05.068Z,16.65
2022-12-11T00:04:32.016Z,16.50
2022-12-11T00:06:58.722Z,16.57
2022-12-11T00:09:25.390Z,16.61
2022-12-11T00:11:52.022Z,16.57
2022-12-11T00:14:18.822Z,16.57
2022-12-11T00:16:47.978Z,16.63
2022-12-11T00:19:14.694Z,16.57
2022-12-11T00:21:41.415Z,16.57
2022-12-11T00:24:08.425Z,16.63
2022-12-11T00:26:35.109Z,16.66
2022-12-11T00:29:01.816Z,16.64
2022-12-11T00:31:28.513Z,16.73
2022-12-11T00:33:55.191Z,16.68
2022-12-11T00:36:25.380Z,16.70
2022-12-11T00:38:53.927Z,16.79
2022-12-11T00:41:21.448Z,16.72
2022-12-11T00:43:48.636Z,16.78
2022-12-11T00:46:15.462Z,16.93
2022-12-11T00:48:42.311Z,16.87
2022-12-11T00:51:09.233Z,16.77
2022-12-11T00:53:37.196Z,16.88
2022-12-11T00:56:10.615Z,16.89
2022-12-11T00:58:37.288Z,16.88
2022-12-11T01:01:09.807Z,16.92
2022-12-11T01:03:37.287Z,16.88
2022-12-11T01:06:04.488Z,16.90
2022-12-11T01:08:36.778Z,16.95
2022-12-11T01:11:07.524Z,16.95
2022-12-11T01:13:34.360Z,17.02
2022-12-11T01:16:06.528Z,16.95
2022-12-11T01:18:33.251Z,16.93
2022-12-11T01:20:59.942Z,16.91
2022-12-11T01:23:26.587Z,17.01
2022-12-11T01:25:53.252Z,16.92
2022-12-11T01:28:19.868Z,16.99
2022-12-11T01:30:46.576Z,16.91
2022-12-11T01:33:13.246Z,16.98
2022-12-11T01:35:40.549Z,16.87
2022-12-11T01:38:07.226Z,16.86
2022-12-11T01:40:33.981Z,16.85
2022-12-11T01:43:00.691Z,16.81
2022-12-11T01:45:45.012Z,16.69
2022-12-11T01:48:18.521Z,16.75
2022-12-11T01:50:52.136Z,16.70
2022-12-11T01:53:27.694Z,16.67
2022-12-11T01:55:55.847Z,16.83
2022-12-11T01:58:26.219Z,16.83
2022-12-11T02:00:54.030Z,16.77
2022-12-11T02:03:21.315Z,16.89
2022-12-11T02:05:48.179Z,16.81
2022-12-11T02:08:15.510Z,16.72
2022-12-11T02:11:03.193Z,16.85
2022-12-11T02:13:42.385Z,16.85
2022-12-11T02:16:41.996Z,16.69
2022-12-11T02:19:21.730Z,16.77
2022-12-11T02:21:53.216Z,16.67
2022-12-11T02:25:03.659Z,16.74
2022-12-11T02:27:56.783Z,16.88
2022-12-11T02:30:24.898Z,16.73
2022-12-11T02:32:59.560Z,16.66
2022-12-11T02:35:30.752Z,16.79
2022-12-11T02:38:12.437Z,16.73
2022-12-11T02:40:42.528Z,16.70
2022-12-11T02:43:13.567Z,16.75
2022-12-11T02:45:42.293Z,16.78
2022-12-11T02:48:11.730Z,16.81
2022-12-11T02:50:44.168Z,16.93
2022-12-11T02:53:13.533Z,16.94
2022-12-11T02:55:42.661Z,17.02
2022-12-11T02:58:20.141Z,17.12
2022-12-11T03:00:47.440Z,17.10
2022-12-11T03:03:14.714Z,17.14
2022-12-11T03:05:42.404Z,17.14
2022-12-11T03:08:09.525Z,17.07
2022-12-11T03:10:36.226Z,17.17
2022-12-11T03:13:03.198Z,17.21
2022-12-11T03:15:49.848Z,17.30
2022-12-11T03:18:28.461Z,17.29
2022-12-11T03:21:28.044Z,17.25
2022-12-11T03:24:05.401Z,17.24
2022-12-11T03:26:41.543Z,17.27
2022-12-11T03:29:20.345Z,17.19
2022-12-11T03:32:09.908Z,17.18
2022-12-11T03:34:58.158Z,17.06
2022-12-11T03:37:28.780Z,16.94
2022-12-11T03:40:02.520Z,16.85
2022-12-11T03:42:29.776Z,17.03
2022-12-11T03:44:59.371Z,16.96
2022-12-11T03:47:28.720Z,17.05
2022-12-11T03:49:57.183Z,16.96
2022-12-11T03:52:27.420Z,16.94
2022-12-11T03:54:56.905Z,16.98
2022-12-11T03:57:29.237Z,17.01
2022-12-11T03:59:56.610Z,16.96
2022-12-11T04:02:23.468Z,17.00
2022-12-11T04:04:50.167Z,16.93
2022-12-11T04:07:16.798Z,16.92
2022-12-11T04:09:43.499Z,16.90
2022-12-11T04:12:10.193Z,16.99
2022-12-11T04:14:55.460Z,16.81
2022-12-11T04:17:40.715Z,16.98
2022-12-11T04:20:28.024Z,16.94
2022-12-11T04:23:13.443Z,16.90
2022-12-11T04:25:40.128Z,16.96
2022-12-11T04:28:06.818Z,16.96
2022-12-11T04:30:34.455Z,16.97
2022-12-11T04:33:02.031Z,16.92
2022-12-11T04:35:28.899Z,16.81
2022-12-11T04:37:55.720Z,16.75
2022-12-11T04:40:22.543Z,16.77
2022-12-11T04:42:49.203Z,16.67
2022-12-11T04:45:15.924Z,16.60
2022-12-11T04:47:42.923Z,16.63
2022-12-11T04:50:11.564Z,16.58
2022-12-11T04:52:38.267Z,16.56
2022-12-11T04:55:06.680Z,16.60
2022-12-11T04:57:33.404Z,16.48
2022-12-11T05:00:00.226Z,16.55
2022-12-11T05:02:27.168Z,16.56
2022-12-11T05:04:53.839Z,16.49
2022-12-11T05:07:20.560Z,16.58
2022-12-11T05:09:47.276Z,16.59
2022-12-11T05:12:13.917Z,16.60
2022-12-11T05:14:40.685Z,16.56
2022-12-11T05:17:07.333Z,16.58
2022-12-11T05:19:34.044Z,16.58
2022-12-11T05:22:00.744Z,16.59
2022-12-11T05:24:27.442Z,16.61
2022-12-11T05:26:54.130Z,16.61
2022-12-11T05:29:20.785Z,16.57
2022-12-11T05:31:47.461Z,16.61
2022-12-11T05:34:15.309Z,16.56
2022-12-11T05:36:42.018Z,16.55
2022-12-11T05:39:09.717Z,16.60
2022-12-11T05:41:36.367Z,16.68
2022-12-11T05:44:03.050Z,16.60
2022-12-11T05:46:31.141Z,16.65
2022-12-11T05:49:00.553Z,16.61
2022-12-11T05:51:28.973Z,16.54
2022-12-11T05:53:56.856Z,16.60
2022-12-11T05:56:26.620Z,16.66
2022-12-11T05:58:54.100Z,16.57
2022-12-11T06:01:32.511Z,16.55
2022-12-11T06:03:59.640Z,16.56
2022-12-11T06:06:27.133Z,16.53
2022-12-11T06:08:56.226Z,16.54
2022-12-11T06:11:24.577Z,16.56
2022-12-11T06:13:52.479Z,16.62
2022-12-11T06:16:19.767Z,16.65
2022-12-11T06:18:46.960Z,16.72
2022-12-11T06:21:16.505Z,16.69
2022-12-11T06:23:44.291Z,16.69
2022-12-11T06:26:12.026Z,16.63
2022-12-11T06:28:39.056Z,16.55
2022-12-11T06:31:06.000Z,16.64
2022-12-11T06:33:32.949Z,16.66
2022-12-11T06:36:07.021Z,16.68
2022-12-11T06:38:33.742Z,16.59
2022-12-11T06:41:02.701Z,16.55
2022-12-11T06:43:29.367Z,16.63
2022-12-11T06:46:00.609Z,16.58
2022-12-11T06:48:30.275Z,16.63
2022-12-11T06:50:57.920Z,16.53
2022-12-11T06:53:24.640Z,16.51
2022-12-11T06:55:51.418Z,16.62
2022-12-11T06:58:18.080Z,16.65
2022-12-11T07:00:44.711Z,16.57
2022-12-11T07:03:11.893Z,16.58
2022-12-11T07:05:38.644Z,16.54
2022-12-11T07:08:05.553Z,16.55
2022-12-11T07:10:32.856Z,16.64
2022-12-11T07:12:59.465Z,16.73
2022-12-11T07:15:26.076Z,16.75
2022-12-11T07:17:52.811Z,16.73
2022-12-11T07:20:19.433Z,17.07
2022-12-11T07:22:46.837Z,17.26
2022-12-11T07:25:14.420Z,17.27
2022-12-11T07:27:41.791Z,17.21
2022-12-11T07:30:09.585Z,17.10
2022-12-11T07:32:36.474Z,17.00
2022-12-11T07:35:03.903Z,17.18
2022-12-11T07:37:30.579Z,17.25
2022-12-11T07:42:59.783Z,17.44
2022-12-11T07:45:26.682Z,17.29
2022-12-11T07:47:53.299Z,17.19
2022-12-11T07:50:20.078Z,17.22
2022-12-11T07:52:46.728Z,17.23
2022-12-11T07:55:13.780Z,17.14
2022-12-11T07:57:40.696Z,17.20
2022-12-11T08:00:08.034Z,17.22
2022-12-11T08:02:37.368Z,17.23
2022-12-11T08:05:04.926Z,17.27
2022-12-11T08:07:34.916Z,17.43
2022-12-11T08:10:02.053Z,17.32
2022-12-11T08:12:28.778Z,17.32
2022-12-11T08:14:55.446Z,17.27
2022-12-11T08:17:25.977Z,17.06
2022-12-11T08:19:56.124Z,17.31
2022-12-11T08:22:22.840Z,17.26
2022-12-11T08:24:49.489Z,17.28
2022-12-11T08:27:16.210Z,17.42
2022-12-11T08:29:42.860Z,17.29
2022-12-11T08:32:12.420Z,17.50
2022-12-11T08:34:39.593Z,17.39
2022-12-11T08:37:06.246Z,17.57
2022-12-11T08:39:32.868Z,17.67
2022-12-11T08:41:59.623Z,17.59
2022-12-11T08:44:27.246Z,17.64
2022-12-11T08:46:53.865Z,18.18
2022-12-11T08:49:20.558Z,18.58
2022-12-11T08:51:47.283Z,18.40
2022-12-11T08:54:13.903Z,18.17
2022-12-11T08:56:40.699Z,18.20
2022-12-11T08:59:07.499Z,18.21
2022-12-11T09:01:34.233Z,18.05
2022-12-11T09:04:01.062Z,18.14
2022-12-11T09:06:30.050Z,18.08
2022-12-11T09:08:59.852Z,18.04
2022-12-11T09:11:29.399Z,17.98
2022-12-11T09:13:56.090Z,18.02
2022-12-11T09:16:25.073Z,18.08
2022-12-11T09:18:54.500Z,18.18
2022-12-11T09:21:23.855Z,18.35
2022-12-11T09:23:54.074Z,18.37
2022-12-11T09:26:21.423Z,18.33
2022-12-11T09:28:48.978Z,18.42
2022-12-11T09:31:18.361Z,18.43
2022-12-11T09:33:45.838Z,18.39
2022-12-11T09:36:13.217Z,18.31
2022-12-11T09:38:40.459Z,18.49
2022-12-11T09:41:22.240Z,18.46
2022-12-11T09:44:30.404Z,18.50
2022-12-11T09:46:58.342Z,18.46
2022-12-11T09:49:34.483Z,18.51
2022-12-11T09:52:07.475Z,18.58
2022-12-11T09:54:34.752Z,18.52
2022-12-11T09:57:31.942Z,18.49
2022-12-11T10:00:32.042Z,18.53
2022-12-11T10:03:10.608Z,18.39
2022-12-11T10:06:06.622Z,18.35
2022-12-11T10:08:56.896Z,18.39
2022-12-11T10:12:00.312Z,18.28
2022-12-11T10:14:45.957Z,18.40
2022-12-11T10:17:20.611Z,18.24
2022-12-11T10:19:48.440Z,18.17
2022-12-11T10:22:23.740Z,18.24
2022-12-11T10:25:13.984Z,18.27
2022-12-11T10:27:41.555Z,18.29
2022-12-11T10:30:33.044Z,18.32
2022-12-11T10:33:22.728Z,18.23
2022-12-11T10:35:55.435Z,18.24
2022-12-11T10:38:28.096Z,18.24
2022-12-11T10:41:40.715Z,18.18
2022-12-11T10:44:17.980Z,18.17
2022-12-11T10:46:46.401Z,18.23
2022-12-11T10:49:31.415Z,18.06
2022-12-11T10:52:01.648Z,18.10
2022-12-11T10:54:33.840Z,18.15
2022-12-11T10:57:03.002Z,18.13
2022-12-11T10:59:50.251Z,18.20
2022-12-11T11:02:27.232Z,18.21
2022-12-11T11:04:56.306Z,18.24
2022-12-11T11:07:27.061Z,18.29
2022-12-11T11:10:12.019Z,18.42
2022-12-11T11:12:43.387Z,18.38
2022-12-11T11:15:14.531Z,18.55
2022-12-11T11:18:18.308Z,18.54
2022-12-11T11:20:48.355Z,18.58
2022-12-11T11:23:16.800Z,18.63
2022-12-11T11:25:56.261Z,18.64
2022-12-11T11:28:36.780Z,18.61
2022-12-11T11:31:14.713Z,18.60
2022-12-11T11:33:58.872Z,18.68
2022-12-11T11:36:28.440Z,18.61
2022-12-11T11:39:25.801Z,18.64
2022-12-11T11:42:13.794Z,18.77
2022-12-11T11:44:52.654Z,18.60
2022-12-11T11:47:34.319Z,18.50
2022-12-11T11:50:13.730Z,18.53
2022-12-11T11:53:00.414Z,18.58
2022-12-11T11:56:15.589Z,18.66
2022-12-11T11:58:49.037Z,18.40
2022-12-11T12:01:17.988Z,18.42
2022-12-11T12:03:47.318Z,18.42
2022-12-11T12:06:51.197Z,18.29
2022-12-11T12:09:42.436Z,18.25
2022-12-11T12:12:51.084Z,18.46
2022-12-11T12:15:57.353Z,18.38
2022-12-11T12:18:57.985Z,18.47
2022-12-11T12:21:42.279Z,18.43
2022-12-11T12:24:33.506Z,18.83
2022-12-11T12:27:51.665Z,18.96
2022-12-11T12:30:22.774Z,18.84
2022-12-11T12:33:08.043Z,18.85
2022-12-11T12:35:42.899Z,18.71
2022-12-11T12:38:23.742Z,18.89
2022-12-11T12:41:25.843Z,18.90
2022-12-11T12:44:13.536Z,18.89
2022-12-11T12:47:02.562Z,18.48
2022-12-11T12:49:49.377Z,18.56
2022-12-11T12:52:29.620Z,18.43
2022-12-11T12:55:14.355Z,18.29
2022-12-11T12:57:49.502Z,18.31
2022-12-11T13:00:42.581Z,18.00
2022-12-11T13:03:21.334Z,18.11
2022-12-11T13:06:09.520Z,17.99
2022-12-11T13:08:47.572Z,17.92
2022-12-11T13:11:18.220Z,17.87
2022-12-11T13:13:54.987Z,17.94
2022-12-11T13:16:27.650Z,17.84
2022-12-11T13:18:54.774Z,17.87
2022-12-11T13:21:40.995Z,17.80
2022-12-11T13:24:15.134Z,17.78
2022-12-11T13:26:42.199Z,17.81
2022-12-11T13:29:30.488Z,17.79
2022-12-11T13:32:17.360Z,17.80
2022-12-11T13:34:57.705Z,17.89
2022-12-11T13:37:41.243Z,17.80
2022-12-11T13:40:17.402Z,17.76
2022-12-11T13:42:57.546Z,17.86
2022-12-11T13:45:29.803Z,17.80
2022-12-11T13:47:57.535Z,17.77
2022-12-11T13:50:34.647Z,17.78
2022-12-11T13:53:03.590Z,17.61
2022-12-11T13:55:33.037Z,17.53
2022-12-11T13:58:00.507Z,17.65
2022-12-11T14:00:33.029Z,17.58
2022-12-11T14:03:05.321Z,17.60
2022-12-11T14:05:33.771Z,17.73
2022-12-11T14:08:09.201Z,17.67
2022-12-11T14:10:37.182Z,17.62
2022-12-11T14:13:11.351Z,17.65
2022-12-11T14:15:43.913Z,17.65
2022-12-11T14:18:21.025Z,17.50
2022-12-11T14:20:54.299Z,17.49
2022-12-11T14:23:24.063Z,17.43
2022-12-11T14:26:04.857Z,17.38
2022-12-11T14:28:43.080Z,17.45
2022-12-11T14:31:15.931Z,17.43
2022-12-11T14:33:56.073Z,17.34
2022-12-11T14:36:23.559Z,17.42
2022-12-11T14:39:01.655Z,17.29
2022-12-11T14:41:41.928Z,17.20
2022-12-11T14:44:14.533Z,17.05
2022-12-11T14:46:50.375Z,17.09
2022-12-11T14:49:44.511Z,17.06
2022-12-11T14:52:19.303Z,17.11
2022-12-11T14:54:51.555Z,16.95
2022-12-11T14:57:25.811Z,16.88
2022-12-11T14:59:54.899Z,16.80
2022-12-11T15:02:26.334Z,16.64
2022-12-11T15:05:13.528Z,16.70
2022-12-11T15:07:53.876Z,16.61
2022-12-11T15:10:42.261Z,16.49
2022-12-11T15:13:09.746Z,16.39
2022-12-11T15:15:46.284Z,16.35
2022-12-11T15:18:31.124Z,16.24
2022-12-11T15:21:01.462Z,16.17
2022-12-11T15:23:29.691Z,16.05
2022-12-11T15:25:59.178Z,16.04
2022-12-11T15:28:34.774Z,15.98
2022-12-11T15:31:08.473Z,16.03
2022-12-11T15:33:45.831Z,16.01
2022-12-11T15:36:39.408Z,15.98
2022-12-11T15:39:09.041Z,15.95
2022-12-11T15:41:36.039Z,15.92
2022-12-11T15:44:04.415Z,15.85
2022-12-11T15:46:36.412Z,15.89
2022-12-11T15:49:12.456Z,15.86
2022-12-11T15:54:33.956Z,15.76
2022-12-11T15:57:05.844Z,15.71
2022-12-11T15:59:33.468Z,15.68
2022-12-11T16:02:00.182Z,15.66
2022-12-11T16:04:27.002Z,15.54
2022-12-11T16:06:53.635Z,15.64
2022-12-11T16:09:20.290Z,15.58
2022-12-11T16:11:47.319Z,15.50
2022-12-11T16:14:13.920Z,15.41
2022-12-11T16:16:40.587Z,15.41
2022-12-11T16:19:07.204Z,15.36
2022-12-11T16:21:33.866Z,15.42
2022-12-11T16:24:00.610Z,15.41
2022-12-11T16:26:27.317Z,15.36
2022-12-11T16:28:54.051Z,15.36
2022-12-11T16:31:20.835Z,15.37
2022-12-11T16:33:47.553Z,15.31
2022-12-11T16:36:16.961Z,15.30
2022-12-11T16:38:53.452Z,15.31
2022-12-11T16:41:20.876Z,15.26
2022-12-11T16:43:47.584Z,15.22
2022-12-11T16:46:18.989Z,15.23
2022-12-11T16:48:45.784Z,15.21
2022-12-11T16:51:12.409Z,15.17
2022-12-11T16:53:39.195Z,15.27
2022-12-11T16:56:07.070Z,15.26
2022-12-11T16:58:33.713Z,15.20
2022-12-11T17:01:03.465Z,15.10
2022-12-11T17:03:31.651Z,15.26
2022-12-11T17:05:58.634Z,15.23
2022-12-11T17:08:25.972Z,15.28
2022-12-11T17:10:53.021Z,15.23
2022-12-11T17:13:19.689Z,15.23
2022-12-11T17:15:46.468Z,15.28
2022-12-11T17:18:13.173Z,15.27
2022-12-11T17:20:44.604Z,15.22
2022-12-11T17:23:12.297Z,15.29
2022-12-11T17:25:43.233Z,15.28
2022-12-11T17:28:10.361Z,15.26
2022-12-11T17:30:45.096Z,15.32
2022-12-11T17:33:12.434Z,15.37
2022-12-11T17:35:39.107Z,15.34
2022-12-11T17:38:05.758Z,15.38
2022-12-11T17:40:32.441Z,15.37
2022-12-11T17:42:59.154Z,15.33
2022-12-11T17:45:25.892Z,15.32
2022-12-11T17:47:52.622Z,15.36
2022-12-11T17:50:19.572Z,15.31
2022-12-11T17:52:46.280Z,15.30
2022-12-11T17:55:13.243Z,15.39
2022-12-11T17:57:40.144Z,15.33
2022-12-11T18:00:07.674Z,15.29
2022-12-11T18:02:34.999Z,15.30
2022-12-11T18:05:01.811Z,15.34
2022-12-11T18:07:28.489Z,15.35
2022-12-11T18:09:55.236Z,15.39
2022-12-11T18:12:21.916Z,15.26
2022-12-11T18:14:48.664Z,15.22
2022-12-11T18:17:15.357Z,15.18
2022-12-11T18:19:46.025Z,15.22
2022-12-11T18:22:13.190Z,15.22
2022-12-11T18:24:39.838Z,15.39
2022-12-11T18:27:10.260Z,15.32
2022-12-11T18:29:37.276Z,15.29
2022-12-11T18:32:04.439Z,15.32
2022-12-11T18:34:31.111Z,15.28
2022-12-11T18:36:58.206Z,15.29
2022-12-11T18:39:25.514Z,15.30
2022-12-11T18:42:23.897Z,15.32
2022-12-11T18:44:39.096Z,15.26
2022-12-11T18:47:07.154Z,15.23
2022-12-11T18:49:33.870Z,15.23
2022-12-11T18:52:00.658Z,15.17
2022-12-11T18:54:27.768Z,15.26
2022-12-11T18:56:54.449Z,15.26
2022-12-11T18:59:21.312Z,15.24
2022-12-11T19:01:48.088Z,15.27
2022-12-11T19:04:14.748Z,15.29
2022-12-11T19:06:41.525Z,15.31
2022-12-11T19:09:09.197Z,15.20
2022-12-11T19:11:38.475Z,15.04
2022-12-11T19:14:06.134Z,14.87
2022-12-11T19:16:42.075Z,14.91
2022-12-11T19:19:13.187Z,14.96
2022-12-11T19:21:40.430Z,14.99
2022-12-11T19:24:09.221Z,14.89
2022-12-11T19:26:35.908Z,15.00
2022-12-11T19:29:02.768Z,14.95
2022-12-11T19:31:31.958Z,15.00
2022-12-11T19:33:59.150Z,14.95
2022-12-11T19:36:28.410Z,14.82
2022-12-11T19:39:01.151Z,14.93
2022-12-11T19:41:29.479Z,14.96
2022-12-11T19:43:58.107Z,14.94
2022-12-11T19:46:25.051Z,14.93
2022-12-11T19:48:53.908Z,15.01
2022-12-11T19:51:23.947Z,14.95
2022-12-11T19:53:51.373Z,15.01
2022-12-11T19:56:19.712Z,15.10
2022-12-11T19:58:46.955Z,15.03
2022-12-11T20:01:24.994Z,14.90
2022-12-11T20:03:57.254Z,14.82
2022-12-11T20:06:24.655Z,14.41
2022-12-11T20:08:51.448Z,13.90
2022-12-11T20:11:19.136Z,13.23
2022-12-11T20:13:47.963Z,12.95
2022-12-11T20:16:16.581Z,12.72
2022-12-11T20:18:43.555Z,12.33
2022-12-11T20:21:14.614Z,12.32
2022-12-11T20:23:41.703Z,12.26
2022-12-11T20:26:13.438Z,12.08
2022-12-11T20:28:40.745Z,11.96
2022-12-11T20:31:19.509Z,11.92
2022-12-11T20:33:49.007Z,11.91
2022-12-11T20:36:17.601Z,11.90
2022-12-11T20:38:45.684Z,11.79
2022-12-11T20:41:15.171Z,11.84
2022-12-11T20:43:42.133Z,11.70
2022-12-11T20:46:11.142Z,11.69
2022-12-11T20:48:38.757Z,11.72
2022-12-11T20:51:06.852Z,11.79
2022-12-11T20:53:35.008Z,11.77
2022-12-11T20:56:02.441Z,11.66
2022-12-11T20:58:29.130Z,11.63
2022-12-11T21:00:55.825Z,11.61
2022-12-11T21:03:22.579Z,11.67
2022-12-11T21:05:49.254Z,11.77
2022-12-11T21:08:15.923Z,11.52
2022-12-11T21:10:43.933Z,11.48
2022-12-11T21:13:10.993Z,11.62
2022-12-11T21:15:39.522Z,11.53
2022-12-11T21:18:07.905Z,11.62
2022-12-11T21:20:35.235Z,11.71
2022-12-11T21:23:03.790Z,11.83
2022-12-11T21:25:30.553Z,11.76
2022-12-11T21:27:57.185Z,11.79
2022-12-11T21:30:23.896Z,11.67
2022-12-11T21:32:50.567Z,11.66
2022-12-11T21:35:17.328Z,11.73
2022-12-11T21:37:43.995Z,11.91
2022-12-11T21:40:11.176Z,11.82
2022-12-11T21:42:37.819Z,11.75
2022-12-11T21:47:51.492Z,11.82
2022-12-11T21:50:18.427Z,11.69
2022-12-11T21:52:45.071Z,11.83
2022-12-11T21:55:12.787Z,11.90
2022-12-11T21:57:39.727Z,11.71
2022-12-11T22:00:07.458Z,11.45
2022-12-11T22:02:40.476Z,11.44
2022-12-11T22:05:08.126Z,11.57
2022-12-11T22:07:34.839Z,11.56
2022-12-11T22:10:01.713Z,11.84
2022-12-11T22:12:28.879Z,11.95
2022-12-11T22:14:56.134Z,11.88
2022-12-11T22:17:23.635Z,11.73
2022-12-11T22:19:52.093Z,11.56
2022-12-11T22:22:19.481Z,11.53
2022-12-11T22:24:46.930Z,11.42
2022-12-11T22:27:15.133Z,11.56
2022-12-11T22:29:44.576Z,11.69
2022-12-11T22:32:11.217Z,11.43
2022-12-11T22:34:37.893Z,11.57
2022-12-11T22:37:04.591Z,11.60
2022-12-11T22:39:31.263Z,11.52
2022-12-11T22:41:59.669Z,11.80
2022-12-11T22:44:26.336Z,11.74
2022-12-11T22:46:52.972Z,11.80
2022-12-11T22:49:20.453Z,11.90
2022-12-11T22:51:47.554Z,11.88
2022-12-11T22:54:14.298Z,11.61
2022-12-11T22:56:41.938Z,11.50
2022-12-11T22:59:08.905Z,11.48
2022-12-11T23:01:35.631Z,11.14
2022-12-11T23:04:02.235Z,10.97
2022-12-11T23:06:28.963Z,11.21
2022-12-11T23:09:01.168Z,11.14
2022-12-11T23:11:34.921Z,10.95
2022-12-11T23:14:02.747Z,10.90
2022-12-11T23:16:29.441Z,10.89
2022-12-11T23:18:57.684Z,10.76
2022-12-11T23:21:26.474Z,10.52
2022-12-11T23:23:53.610Z,10.47
2022-12-11T23:26:21.750Z,10.52
2022-12-11T23:28:49.269Z,10.38
2022-12-11T23:31:16.638Z,10.51
2022-12-11T23:33:43.379Z,10.43
2022-12-11T23:36:10.785Z,10.21
2022-12-11T23:38:37.794Z,10.20
2022-12-11T23:41:06.016Z,10.22
2022-12-11T23:43:35.196Z,10.10
2022-12-11T23:46:03.185Z,9.89
2022-12-11T23:48:29.955Z,9.77
2022-12-11T23:51:00.759Z,9.91
2022-12-11T23:53:28.252Z,9.98
2022-12-11T23:55:55.210Z,10.10
2022-12-11T23:58:22.657Z,10.32
